createdAt,value
2023-11-17T00:00:15.287Z,97091.63
2023-11-17T00:02:42.849Z,97087.78
2023-11-17T00:05:10.419Z,97078.25
2023-11-17T00:07:37.519Z,97090.50
2023-11-17T00:10:05.555Z,97089.78
2023-11-17T00:12:33.723Z,97088.63
2023-11-17T00:15:01.013Z,97087.50
2023-11-17T00:17:29.098Z,97083.59
2023-11-17T00:19:56.220Z,97080.56
2023-11-17T00:22:23.270Z,97074.56
2023-11-17T00:24:51.034Z,97075.41
2023-11-17T00:27:18.688Z,97081.69
2023-11-17T00:29:45.624Z,97079.63
2023-11-17T00:32:12.523Z,97081.75
2023-11-17T00:34:39.853Z,97083.88
2023-11-17T00:37:09.113Z,97086.62
2023-11-17T00:39:37.168Z,97082.72
2023-11-17T00:42:04.537Z,97086.62
2023-11-17T00:44:32.080Z,97074.81
2023-11-17T00:46:59.647Z,97075.25
2023-11-17T00:49:26.989Z,97075.69
2023-11-17T00:51:54.242Z,97068.63
2023-11-17T00:54:27.693Z,97060.84
2023-11-17T00:56:57.865Z,97052.37
2023-11-17T00:59:24.838Z,97057.03
2023-11-17T01:01:51.859Z,97050.84
2023-11-17T01:04:20.532Z,97052.69
2023-11-17T01:06:52.918Z,97040.88
2023-11-17T01:09:19.913Z,97044.47
2023-11-17T01:11:46.977Z,97044.84
2023-11-17T01:14:13.869Z,97040.72
2023-11-17T01:16:40.887Z,97036.19
2023-11-17T01:19:07.890Z,97034.09
2023-11-17T01:21:35.726Z,97033.34
2023-11-17T01:24:03.066Z,97030.50
2023-11-17T01:26:30.214Z,97021.13
2023-11-17T01:28:57.332Z,97021.44
2023-11-17T01:31:24.549Z,97014.84
2023-11-17T01:33:51.647Z,97016.56
2023-11-17T01:36:19.225Z,97015.63
2023-11-17T01:38:52.858Z,97001.72
2023-11-17T01:41:22.098Z,97010.91
2023-11-17T01:43:50.224Z,97002.19
2023-11-17T01:46:19.201Z,97006.50
2023-11-17T01:48:46.178Z,97002.06
2023-11-17T01:51:13.802Z,96995.16
2023-11-17T01:53:40.849Z,96991.84
2023-11-17T01:56:07.818Z,96979.78
2023-11-17T01:58:34.833Z,96992.94
2023-11-17T02:01:02.929Z,96985.28
2023-11-17T02:03:30.439Z,96981.97
2023-11-17T02:06:24.216Z,96971.94
2023-11-17T02:09:23.082Z,96965.59
2023-11-17T02:12:12.631Z,96961.81
2023-11-17T02:14:43.306Z,96948.28
2023-11-17T02:17:10.701Z,96936.50
2023-11-17T02:19:44.273Z,96940.09
2023-11-17T02:22:16.051Z,96940.78
2023-11-17T02:24:51.128Z,96944.75
2023-11-17T02:27:27.902Z,96933.91
2023-11-17T02:30:04.722Z,96929.72
2023-11-17T02:32:33.186Z,96922.34
2023-11-17T02:35:01.999Z,96926.06
2023-11-17T02:37:29.117Z,96941.53
2023-11-17T02:39:58.855Z,96938.97
2023-11-17T02:42:25.808Z,96947.41
2023-11-17T02:44:52.700Z,96942.13
2023-11-17T02:47:29.267Z,96942.66
2023-11-17T02:50:02.281Z,96943.81
2023-11-17T02:52:44.393Z,96933.53
2023-11-17T02:55:14.935Z,96932.19
2023-11-17T02:57:42.825Z,96920.06
2023-11-17T03:00:10.581Z,96911.53
2023-11-17T03:02:41.303Z,96905.91
2023-11-17T03:05:15.420Z,96894.50
2023-11-17T03:07:42.362Z,96909.13
2023-11-17T03:10:09.736Z,96899.47
2023-11-17T03:12:36.624Z,96898.13
2023-11-17T03:15:05.467Z,96893.38
2023-11-17T03:17:34.162Z,96884.47
2023-11-17T03:20:01.073Z,96886.09
2023-11-17T03:22:28.026Z,96874.16
2023-11-17T03:24:54.944Z,96879.44
2023-11-17T03:27:21.862Z,96879.34
2023-11-17T03:29:48.740Z,96873.41
2023-11-17T03:32:15.756Z,96877.63
2023-11-17T03:34:43.268Z,96867.00
2023-11-17T03:37:14.546Z,96867.16
2023-11-17T03:39:44.289Z,96864.59
2023-11-17T03:42:20.234Z,96868.16
2023-11-17T03:44:47.327Z,96887.00
2023-11-17T03:47:14.954Z,96882.25
2023-11-17T03:49:45.171Z,96874.56
2023-11-17T03:52:15.885Z,96879.78
2023-11-17T03:54:43.097Z,96882.13
2023-11-17T03:57:11.465Z,96874.22
2023-11-17T03:59:38.429Z,96874.09
2023-11-17T04:02:06.976Z,96873.97
2023-11-17T04:04:34.076Z,96878.22
2023-11-17T04:07:01.071Z,96872.78
2023-11-17T04:09:28.568Z,96867.06
2023-11-17T04:11:55.730Z,96858.44
2023-11-17T04:14:23.646Z,96857.09
2023-11-17T04:16:51.441Z,96855.94
2023-11-17T04:19:22.202Z,96854.50
2023-11-17T04:21:50.821Z,96846.72
2023-11-17T04:24:18.689Z,96851.44
2023-11-17T04:26:47.746Z,96851.03
2023-11-17T04:29:15.017Z,96855.53
2023-11-17T04:31:43.439Z,96855.34
2023-11-17T04:34:12.941Z,96862.09
2023-11-17T04:36:40.333Z,96859.28
2023-11-17T04:39:13.305Z,96861.03
2023-11-17T04:41:40.291Z,96869.16
2023-11-17T04:44:07.239Z,96868.94
2023-11-17T04:46:34.212Z,96876.59
2023-11-17T04:49:01.218Z,96880.12
2023-11-17T04:51:28.157Z,96880.12
2023-11-17T04:53:55.111Z,96883.66
2023-11-17T04:56:22.021Z,96892.34
2023-11-17T04:58:48.930Z,96904.81
2023-11-17T05:01:16.385Z,96903.53
2023-11-17T05:03:44.181Z,96909.25
2023-11-17T05:06:11.095Z,96916.44
2023-11-17T05:08:38.927Z,96912.69
2023-11-17T05:11:06.385Z,96917.69
2023-11-17T05:13:33.899Z,96916.44
2023-11-17T05:16:04.951Z,96924.50
2023-11-17T05:18:32.078Z,96908.25
2023-11-17T05:20:59.010Z,96918.28
2023-11-17T05:23:25.946Z,96923.53
2023-11-17T05:25:52.891Z,96909.91
2023-11-17T05:28:19.944Z,96909.91
2023-11-17T05:30:47.463Z,96918.22
2023-11-17T05:33:19.876Z,96917.97
2023-11-17T05:35:47.540Z,96918.31
2023-11-17T05:38:15.158Z,96913.87
2023-11-17T05:40:42.117Z,96926.03
2023-11-17T05:43:09.177Z,96917.72
2023-11-17T05:45:36.428Z,96925.19
2023-11-17T05:48:04.003Z,96922.25
2023-11-17T05:50:31.128Z,96931.81
2023-11-17T05:52:58.294Z,96932.41
2023-11-17T05:55:25.383Z,96942.13
2023-11-17T05:57:52.705Z,96944.22
2023-11-17T06:00:20.429Z,96942.53
2023-11-17T06:02:47.981Z,96942.00
2023-11-17T06:05:15.306Z,96946.91
2023-11-17T06:07:43.043Z,96944.22
2023-11-17T06:10:10.429Z,96945.25
2023-11-17T06:12:38.162Z,96955.50
2023-11-17T06:15:07.359Z,96944.59
2023-11-17T06:17:36.579Z,96959.06
2023-11-17T06:20:05.090Z,96953.28
2023-11-17T06:22:33.196Z,96953.88
2023-11-17T06:25:00.561Z,96941.94
2023-11-17T06:27:28.792Z,96947.13
2023-11-17T06:29:57.232Z,96955.75
2023-11-17T06:32:24.554Z,96959.75
2023-11-17T06:34:51.844Z,96962.97
2023-11-17T06:37:19.304Z,96976.06
2023-11-17T06:39:46.564Z,96962.13
2023-11-17T06:42:15.026Z,96954.19
2023-11-17T06:44:42.235Z,96948.75
2023-11-17T06:47:09.524Z,96962.66
2023-11-17T06:49:36.643Z,96963.03
2023-11-17T06:52:07.673Z,96953.50
2023-11-17T06:54:34.637Z,96957.81
2023-11-17T06:57:01.648Z,96966.84
2023-11-17T06:59:28.601Z,96961.78
2023-11-17T07:01:55.648Z,96963.59
2023-11-17T07:04:23.169Z,96970.53
2023-11-17T07:06:50.212Z,96978.50
2023-11-17T07:09:17.778Z,96980.97
2023-11-17T07:11:46.073Z,96971.03
2023-11-17T07:14:18.596Z,96989.31
2023-11-17T07:16:46.545Z,97002.16
2023-11-17T07:19:18.911Z,97002.59
2023-11-17T07:21:50.475Z,97000.97
2023-11-17T07:24:20.717Z,97000.81
2023-11-17T07:26:50.697Z,97002.78
2023-11-17T07:29:17.948Z,97009.66
2023-11-17T07:31:46.129Z,97001.12
2023-11-17T07:34:21.867Z,97007.25
2023-11-17T07:36:49.739Z,97023.56
2023-11-17T07:39:20.959Z,97029.88
2023-11-17T07:41:48.608Z,97029.31
2023-11-17T07:44:15.648Z,97030.41
2023-11-17T07:46:43.636Z,97043.94
2023-11-17T07:49:13.769Z,97049.22
2023-11-17T07:51:40.781Z,97055.81
2023-11-17T07:54:13.036Z,97059.37
2023-11-17T07:56:41.836Z,97067.06
2023-11-17T07:59:12.231Z,97071.06
2023-11-17T08:01:40.851Z,97072.53
2023-11-17T08:04:12.127Z,97075.66
2023-11-17T08:06:39.473Z,97063.91
2023-11-17T08:09:10.997Z,97074.50
2023-11-17T08:11:39.000Z,97085.03
2023-11-17T08:14:06.566Z,97088.53
2023-11-17T08:16:36.999Z,97099.44
2023-11-17T08:19:15.185Z,97099.31
2023-11-17T08:21:50.237Z,97111.81
2023-11-17T08:24:21.169Z,97110.84
2023-11-17T08:26:48.393Z,97121.09
2023-11-17T08:29:15.421Z,97128.97
2023-11-17T08:31:43.373Z,97136.94
2023-11-17T08:34:10.470Z,97133.00
2023-11-17T08:36:37.444Z,97132.25
2023-11-17T08:39:27.363Z,97131.97
2023-11-17T08:41:56.586Z,97147.09
2023-11-17T08:44:24.718Z,97145.41
2023-11-17T08:46:52.860Z,97138.09
2023-11-17T08:49:20.268Z,97153.81
2023-11-17T08:51:48.413Z,97151.91
2023-11-17T08:54:16.422Z,97152.41
2023-11-17T08:56:44.455Z,97149.69
2023-11-17T08:59:11.637Z,97143.16
2023-11-17T09:01:38.897Z,97162.47
2023-11-17T09:04:06.121Z,97151.16
2023-11-17T09:06:33.390Z,97162.47
2023-11-17T09:09:00.432Z,97177.00
2023-11-17T09:11:27.372Z,97168.03
2023-11-17T09:13:55.054Z,97174.41
2023-11-17T09:16:22.095Z,97174.66
2023-11-17T09:18:49.016Z,97169.00
2023-11-17T09:21:16.172Z,97171.75
2023-11-17T09:23:43.101Z,97181.66
2023-11-17T09:26:10.019Z,97187.50
2023-11-17T09:28:37.278Z,97183.41
2023-11-17T09:31:04.563Z,97175.09
2023-11-17T09:33:31.631Z,97169.88
2023-11-17T09:36:01.898Z,97183.28
2023-11-17T09:38:36.848Z,97175.72
2023-11-17T09:41:07.802Z,97174.97
2023-11-17T09:43:38.859Z,97173.69
2023-11-17T09:46:06.710Z,97174.88
2023-11-17T09:48:37.754Z,97160.44
2023-11-17T09:51:05.950Z,97189.13
2023-11-17T09:53:36.956Z,97178.22
2023-11-17T09:56:05.934Z,97173.28
2023-11-17T09:58:33.780Z,97182.16
2023-11-17T10:01:00.950Z,97166.03
2023-11-17T10:03:29.796Z,97173.19
2023-11-17T10:05:59.426Z,97167.19
2023-11-17T10:08:27.004Z,97177.94
2023-11-17T10:10:54.055Z,97190.28
2023-11-17T10:13:22.073Z,97180.31
2023-11-17T10:15:55.007Z,97189.88
2023-11-17T10:18:31.343Z,97186.28
2023-11-17T10:21:01.509Z,97188.22
2023-11-17T10:23:28.938Z,97205.97
2023-11-17T10:25:57.248Z,97188.59
2023-11-17T10:28:26.444Z,97191.53
2023-11-17T10:30:57.277Z,97178.38
2023-11-17T10:33:30.483Z,97187.91
2023-11-17T10:36:12.231Z,97189.22
2023-11-17T10:38:46.864Z,97184.97
2023-11-17T10:41:42.105Z,97187.25
2023-11-17T10:44:10.121Z,97206.75
2023-11-17T10:46:37.142Z,97224.84
2023-11-17T10:49:08.709Z,97214.31
2023-11-17T10:51:51.108Z,97222.81
2023-11-17T10:54:18.755Z,97235.38
2023-11-17T10:56:48.817Z,97232.78
2023-11-17T10:59:22.325Z,97231.12
2023-11-17T11:01:51.576Z,97229.44
2023-11-17T11:04:26.893Z,97237.66
2023-11-17T11:06:58.408Z,97247.41
2023-11-17T11:09:34.015Z,97238.09
2023-11-17T11:12:01.383Z,97255.19
2023-11-17T11:14:30.500Z,97261.78
2023-11-17T11:16:57.910Z,97262.16
2023-11-17T11:19:32.056Z,97266.69
2023-11-17T11:22:06.237Z,97277.41
2023-11-17T11:24:38.637Z,97284.09
2023-11-17T11:27:07.815Z,97250.03
2023-11-17T11:29:40.669Z,97278.72
2023-11-17T11:32:08.509Z,97270.75
2023-11-17T11:34:40.318Z,97286.69
2023-11-17T11:37:09.214Z,97297.03
2023-11-17T11:39:38.911Z,97297.94
2023-11-17T11:42:08.815Z,97285.72
2023-11-17T11:44:36.514Z,97291.94
2023-11-17T11:47:05.928Z,97283.16
2023-11-17T11:49:35.326Z,97288.66
2023-11-17T11:52:25.099Z,97293.66
2023-11-17T11:54:53.044Z,97292.25
2023-11-17T11:57:29.465Z,97299.78
2023-11-17T12:00:14.513Z,97298.03
2023-11-17T12:03:03.288Z,97305.56
2023-11-17T12:05:34.534Z,97310.56
2023-11-17T12:08:05.329Z,97307.53
2023-11-17T12:10:42.938Z,97318.87
2023-11-17T12:13:43.351Z,97330.63
2023-11-17T12:16:14.013Z,97324.00
2023-11-17T12:18:50.218Z,97338.75
2023-11-17T12:21:20.890Z,97340.16
2023-11-17T12:23:55.941Z,97349.22
2023-11-17T12:26:27.208Z,97349.94
2023-11-17T12:28:55.990Z,97360.25
2023-11-17T12:31:23.721Z,97373.47
2023-11-17T12:33:52.406Z,97355.25
2023-11-17T12:36:20.650Z,97369.44
2023-11-17T12:38:57.979Z,97361.41
2023-11-17T12:41:28.987Z,97378.13
2023-11-17T12:43:56.864Z,97337.34
2023-11-17T12:46:27.842Z,97357.59
2023-11-17T12:48:55.405Z,97381.13
2023-11-17T12:51:27.169Z,97385.56
2023-11-17T12:53:56.338Z,97398.50
2023-11-17T12:56:24.400Z,97389.91
2023-11-17T12:58:52.937Z,97387.31
2023-11-17T13:01:21.199Z,97389.50
2023-11-17T13:03:50.040Z,97392.03
2023-11-17T13:06:21.199Z,97397.06
2023-11-17T13:08:48.819Z,97400.47
2023-11-17T13:11:16.486Z,97404.94
2023-11-17T13:13:44.732Z,97412.41
2023-11-17T13:16:16.601Z,97409.34
2023-11-17T13:18:45.088Z,97406.12
2023-11-17T13:21:13.216Z,97421.09
2023-11-17T13:23:43.200Z,97412.09
2023-11-17T13:26:22.200Z,97427.91
2023-11-17T13:28:50.040Z,97439.50
2023-11-17T13:31:22.234Z,97441.25
2023-11-17T13:33:56.616Z,97449.44
2023-11-17T13:36:33.430Z,97441.88
2023-11-17T13:39:17.180Z,97459.88
2023-11-17T13:41:46.336Z,97453.19
2023-11-17T13:44:29.158Z,97466.66
2023-11-17T13:47:00.298Z,97469.56
2023-11-17T13:49:27.851Z,97467.47
2023-11-17T13:51:59.176Z,97466.44
2023-11-17T13:54:28.979Z,97479.91
2023-11-17T13:56:56.076Z,97475.47
2023-11-17T13:59:24.879Z,97474.12
2023-11-17T14:01:57.851Z,97464.81
2023-11-17T14:04:34.156Z,97479.19
2023-11-17T14:07:03.852Z,97477.41
2023-11-17T14:09:33.787Z,97478.59
2023-11-17T14:12:04.945Z,97496.72
2023-11-17T14:14:33.480Z,97471.97
2023-11-17T14:17:07.582Z,97496.81
2023-11-17T14:19:36.456Z,97509.37
2023-11-17T14:22:05.397Z,97503.38
2023-11-17T14:24:32.689Z,97499.38
2023-11-17T14:27:00.841Z,97507.63
2023-11-17T14:29:32.741Z,97498.09
2023-11-17T14:31:59.849Z,97507.19
2023-11-17T14:34:28.194Z,97516.97
2023-11-17T14:36:55.727Z,97518.47
2023-11-17T14:39:35.058Z,97525.69
2023-11-17T14:42:02.755Z,97506.13
2023-11-17T14:44:30.480Z,97526.69
2023-11-17T14:46:57.975Z,97538.06
2023-11-17T14:49:25.378Z,97534.28
2023-11-17T14:51:52.584Z,97542.91
2023-11-17T14:54:19.477Z,97554.44
2023-11-17T14:56:46.701Z,97539.19
2023-11-17T14:59:14.285Z,97561.03
2023-11-17T15:01:43.960Z,97559.09
2023-11-17T15:04:11.359Z,97549.78
2023-11-17T15:06:38.336Z,97566.91
2023-11-17T15:09:05.690Z,97582.19
2023-11-17T15:11:33.514Z,97585.94
2023-11-17T15:14:05.930Z,97581.38
2023-11-17T15:16:36.060Z,97593.75
2023-11-17T15:19:05.264Z,97591.03
2023-11-17T15:21:39.111Z,97593.63
2023-11-17T15:24:10.053Z,97587.50
2023-11-17T15:26:37.610Z,97602.03
2023-11-17T15:29:06.558Z,97606.78
2023-11-17T15:31:33.819Z,97615.97
2023-11-17T15:34:12.498Z,97608.34
2023-11-17T15:36:40.157Z,97611.03
2023-11-17T15:39:15.576Z,97602.69
2023-11-17T15:41:43.960Z,97622.34
2023-11-17T15:44:12.721Z,97622.53
2023-11-17T15:46:40.903Z,97632.53
2023-11-17T15:49:11.293Z,97632.22
2023-11-17T15:51:38.737Z,97646.78
2023-11-17T15:54:05.723Z,97641.28
2023-11-17T15:56:32.627Z,97639.91
2023-11-17T15:59:01.343Z,97647.88
2023-11-17T16:01:29.265Z,97643.75
2023-11-17T16:03:56.427Z,97646.69
2023-11-17T16:06:24.545Z,97658.47
2023-11-17T16:08:51.461Z,97670.59
2023-11-17T16:11:21.139Z,97658.78
2023-11-17T16:13:50.128Z,97671.09
2023-11-17T16:16:22.798Z,97673.22
2023-11-17T16:18:50.967Z,97676.28
2023-11-17T16:21:21.742Z,97688.78
2023-11-17T16:23:48.638Z,97681.25
2023-11-17T16:26:16.229Z,97689.38
2023-11-17T16:28:46.237Z,97690.22
2023-11-17T16:31:13.814Z,97666.22
2023-11-17T16:33:43.757Z,97710.38
2023-11-17T16:36:14.059Z,97704.03
2023-11-17T16:38:42.418Z,97703.09
2023-11-17T16:41:10.998Z,97695.97
2023-11-17T16:43:38.188Z,97702.34
2023-11-17T16:46:06.014Z,97715.34
2023-11-17T16:48:34.134Z,97721.81
2023-11-17T16:51:04.114Z,97710.03
2023-11-17T16:53:31.209Z,97736.91
2023-11-17T16:55:58.342Z,97724.00
2023-11-17T16:58:25.388Z,97726.56
2023-11-17T17:00:56.387Z,97717.88
2023-11-17T17:03:24.264Z,97713.13
2023-11-17T17:05:51.796Z,97702.19
2023-11-17T17:08:27.038Z,97743.00
2023-11-17T17:10:54.878Z,97743.88
2023-11-17T17:13:21.905Z,97725.03
2023-11-17T17:15:49.110Z,97726.84
2023-11-17T17:18:18.392Z,97744.09
2023-11-17T17:20:48.520Z,97744.13
2023-11-17T17:23:15.838Z,97756.22
2023-11-17T17:25:45.820Z,97746.00
2023-11-17T17:28:14.030Z,97758.44
2023-11-17T17:30:42.821Z,97761.84
2023-11-17T17:33:13.906Z,97757.75
2023-11-17T17:35:42.382Z,97759.22
2023-11-17T17:38:12.889Z,97750.34
2023-11-17T17:40:41.312Z,97775.50
2023-11-17T17:43:09.558Z,97781.38
2023-11-17T17:45:38.289Z,97784.91
2023-11-17T17:48:09.144Z,97768.00
2023-11-17T17:50:36.945Z,97775.44
2023-11-17T17:53:03.889Z,97784.78
2023-11-17T17:55:30.902Z,97759.44
2023-11-17T17:57:58.254Z,97799.19
2023-11-17T18:00:26.157Z,97795.91
2023-11-17T18:02:59.495Z,97793.66
2023-11-17T18:05:28.236Z,97806.25
2023-11-17T18:07:55.739Z,97818.44
2023-11-17T18:10:26.807Z,97803.78
2023-11-17T18:12:54.188Z,97807.16
2023-11-17T18:15:22.858Z,97815.38
2023-11-17T18:17:52.551Z,97826.13
2023-11-17T18:20:20.764Z,97816.59
2023-11-17T18:22:49.840Z,97817.47
2023-11-17T18:25:18.667Z,97833.94
2023-11-17T18:27:50.573Z,97842.75
2023-11-17T18:30:19.363Z,97835.06
2023-11-17T18:32:47.222Z,97834.34
2023-11-17T18:35:21.016Z,97808.34
2023-11-17T18:37:49.086Z,97830.25
2023-11-17T18:40:29.607Z,97830.69
2023-11-17T18:43:00.503Z,97839.75
2023-11-17T18:45:29.870Z,97814.72
2023-11-17T18:47:59.580Z,97818.75
2023-11-17T18:50:29.418Z,97824.13
2023-11-17T18:52:57.476Z,97828.44
2023-11-17T18:55:24.821Z,97820.84
2023-11-17T18:57:51.780Z,97828.97
2023-11-17T19:00:22.614Z,97842.13
2023-11-17T19:02:52.468Z,97841.72
2023-11-17T19:05:20.728Z,97851.25
2023-11-17T19:07:52.174Z,97835.19
2023-11-17T19:10:25.682Z,97843.00
2023-11-17T19:12:53.245Z,97849.78
2023-11-17T19:15:22.666Z,97852.31
2023-11-17T19:17:49.894Z,97856.12
2023-11-17T19:20:17.344Z,97856.19
2023-11-17T19:22:45.586Z,97850.84
2023-11-17T19:25:12.765Z,97843.16
2023-11-17T19:27:45.084Z,97860.19
2023-11-17T19:30:16.897Z,97843.87
2023-11-17T19:32:46.836Z,97859.25
2023-11-17T19:35:17.076Z,97856.59
2023-11-17T19:37:44.563Z,97870.38
2023-11-17T19:40:13.904Z,97870.28
2023-11-17T19:42:45.290Z,97874.22
2023-11-17T19:45:17.324Z,97880.78
2023-11-17T19:47:47.850Z,97870.00
2023-11-17T19:50:18.845Z,97874.37
2023-11-17T19:52:51.194Z,97881.22
2023-11-17T19:55:21.988Z,97878.28
2023-11-17T19:57:49.426Z,97877.75
2023-11-17T20:00:24.810Z,97890.09
2023-11-17T20:02:53.385Z,97880.06
2023-11-17T20:05:23.778Z,97874.97
2023-11-17T20:07:51.302Z,97891.84
2023-11-17T20:10:18.486Z,97875.94
2023-11-17T20:12:46.294Z,97877.66
2023-11-17T20:15:18.926Z,97883.78
2023-11-17T20:17:55.422Z,97886.00
2023-11-17T20:20:27.364Z,97876.69
2023-11-17T20:22:56.564Z,97886.44
2023-11-17T20:25:25.253Z,97895.78
2023-11-17T20:27:53.677Z,97895.88
2023-11-17T20:30:22.025Z,97892.34
2023-11-17T20:32:51.114Z,97898.94
2023-11-17T20:35:18.639Z,97894.66
2023-11-17T20:37:45.621Z,97890.00
2023-11-17T20:40:15.773Z,97879.56
2023-11-17T20:42:44.301Z,97894.59
2023-11-17T20:45:18.633Z,97876.41
2023-11-17T20:47:48.487Z,97903.16
2023-11-17T20:50:21.094Z,97890.72
2023-11-17T20:52:54.963Z,97898.16
2023-11-17T20:55:22.863Z,97908.19
2023-11-17T20:58:00.803Z,97906.94
2023-11-17T21:00:34.797Z,97917.38
2023-11-17T21:03:02.134Z,97890.88
2023-11-17T21:05:29.921Z,97907.91
2023-11-17T21:07:57.869Z,97903.19
2023-11-17T21:10:27.986Z,97924.50
2023-11-17T21:12:56.721Z,97937.88
2023-11-17T21:15:24.599Z,97929.28
2023-11-17T21:17:55.332Z,97936.56
2023-11-17T21:20:22.497Z,97940.50
2023-11-17T21:22:49.898Z,97943.06
2023-11-17T21:25:19.946Z,97945.72
2023-11-17T21:27:49.517Z,97949.19
2023-11-17T21:30:17.141Z,97942.44
2023-11-17T21:32:48.588Z,97953.91
2023-11-17T21:35:16.041Z,97965.97
2023-11-17T21:37:43.790Z,97949.66
2023-11-17T21:40:15.631Z,97959.50
2023-11-17T21:42:46.301Z,97963.84
2023-11-17T21:45:18.768Z,97960.44
2023-11-17T21:47:46.815Z,97962.59
2023-11-17T21:50:14.138Z,97966.63
2023-11-17T21:52:41.265Z,97964.38
2023-11-17T21:55:15.803Z,97971.34
2023-11-17T21:57:45.094Z,97961.84
2023-11-17T22:00:13.940Z,97978.22
2023-11-17T22:02:45.523Z,97970.44
2023-11-17T22:05:13.510Z,97966.41
2023-11-17T22:07:41.332Z,97978.97
2023-11-17T22:10:15.529Z,97984.62
2023-11-17T22:12:43.652Z,97989.28
2023-11-17T22:15:13.702Z,97985.81
2023-11-17T22:17:43.339Z,97997.22
2023-11-17T22:20:14.697Z,97992.84
2023-11-17T22:22:43.493Z,98000.25
2023-11-17T22:25:13.941Z,98000.28
2023-11-17T22:27:44.744Z,97982.31
2023-11-17T22:30:14.563Z,98009.47
2023-11-17T22:32:42.904Z,98008.19
2023-11-17T22:35:10.953Z,98006.84
2023-11-17T22:37:37.887Z,98007.31
2023-11-17T22:40:07.317Z,98021.28
2023-11-17T22:42:34.235Z,98019.09
2023-11-17T22:45:01.150Z,98025.44
2023-11-17T22:47:28.211Z,98025.00
2023-11-17T22:49:55.155Z,98038.47
2023-11-17T22:52:22.083Z,98041.44
2023-11-17T22:54:49.906Z,98026.87
2023-11-17T22:57:17.028Z,98025.88
2023-11-17T22:59:43.957Z,98039.28
2023-11-17T23:02:12.015Z,98030.31
2023-11-17T23:04:42.069Z,98009.66
2023-11-17T23:07:08.986Z,98031.56
2023-11-17T23:09:35.982Z,98024.28
2023-11-17T23:12:02.907Z,98026.19
2023-11-17T23:14:29.877Z,98027.50
2023-11-17T23:16:56.853Z,98001.69
2023-11-17T23:19:23.845Z,98035.88
2023-11-17T23:21:50.861Z,98030.44
2023-11-17T23:24:17.940Z,98047.22
2023-11-17T23:26:46.234Z,98052.78
2023-11-17T23:29:14.533Z,98064.00
2023-11-17T23:31:41.978Z,98066.47
2023-11-17T23:34:09.827Z,98055.88
2023-11-17T23:36:36.795Z,98053.53
2023-11-17T23:39:06.271Z,98073.97
2023-11-17T23:41:34.324Z,98081.44
2023-11-17T23:44:01.344Z,98077.84
2023-11-17T23:46:28.370Z,98074.97
2023-11-17T23:48:55.289Z,98093.81
2023-11-17T23:51:22.181Z,98077.69
2023-11-17T23:53:50.034Z,98076.84
2023-11-17T23:56:18.197Z,98076.09
2023-11-17T23:58:45.238Z,98074.91
